Time;durP1;ratioP1;P1;durP2;ratioP2;P2;SDS_P1;SDS_P2;PMS_P1;PMS_P2;Temp;Humidity;BMP_temperature;BMP_pressure;BME280_temperature;BME280_humidity;BME280_pressure;Samples;Min_cycle;Max_cycle;Signal;HPM_P1;HPM_P2
2023/07/30 00:00:15;;;;;;;;;2.00;1.00;;;;;;;;5016621;28;45846;-76
2023/07/30 00:02:42;;;;;;;;;2.25;1.75;;;;;;;;5008685;28;45794;-77
2023/07/30 00:05:09;;;;;;;;;1.75;1.50;;;;;;;;5018786;28;46168;-79
2023/07/30 00:07:34;;;;;;;;;5.00;1.00;;;;;;;;5010530;28;45305;-77
2023/07/30 00:10:01;;;;;;;;;1.00;1.00;;;;;;;;5013053;28;45518;-77
2023/07/30 00:12:26;;;;;;;;;2.75;2.75;;;;;;;;5014201;28;46058;-77
2023/07/30 00:14:52;;;;;;;;;1.00;1.00;;;;;;;;5007790;28;46166;-76
2023/07/30 00:17:17;;;;;;;;;1.00;1.00;;;;;;;;5007285;28;45555;-77
2023/07/30 00:19:42;;;;;;;;;7.50;3.50;;;;;;;;5015521;28;45647;-77
2023/07/30 00:22:07;;;;;;;;;5.50;5.00;;;;;;;;5014181;28;46033;-77
2023/07/30 00:24:32;;;;;;;;;3.00;2.00;;;;;;;;5012405;28;46568;-76
2023/07/30 00:26:58;;;;;;;;;2.25;2.25;;;;;;;;5004375;28;45773;-77
2023/07/30 00:29:23;;;;;;;;;3.00;1.25;;;;;;;;5012668;28;45969;-78
2023/07/30 00:31:49;;;;;;;;;2.00;2.00;;;;;;;;5002552;28;45643;-77
2023/07/30 00:34:14;;;;;;;;;2.00;1.50;;;;;;;;5005536;28;45902;-76
2023/07/30 00:36:39;;;;;;;;;3.00;1.50;;;;;;;;5007914;28;45514;-76
2023/07/30 00:39:05;;;;;;;;;1.00;1.00;;;;;;;;5011425;28;46056;-76
2023/07/30 00:41:30;;;;;;;;;1.75;1.25;;;;;;;;5011137;28;45599;-75
2023/07/30 00:43:55;;;;;;;;;3.00;1.50;;;;;;;;4992120;28;45889;-75
2023/07/30 00:46:21;;;;;;;;;3.00;2.00;;;;;;;;5000536;28;46015;-78
2023/07/30 00:48:47;;;;;;;;;0.75;0.50;;;;;;;;5006398;28;45397;-78
2023/07/30 00:51:13;;;;;;;;;7.67;4.67;;;;;;;;5011968;28;45869;-78
2023/07/30 00:53:47;;;;;;;;;3.25;2.00;;;;;;;;4993753;28;45940;-79
2023/07/30 00:56:15;;;;;;;;;1.50;1.50;;;;;;;;5012277;28;45665;-78
2023/07/30 00:58:47;;;;;;;;;5.33;4.33;;;;;;;;5008726;28;44829;-77
2023/07/30 01:01:15;;;;;;;;;1.00;1.00;;;;;;;;4994501;28;45722;-78
2023/07/30 01:03:41;;;;;;;;;1.00;1.00;;;;;;;;5002352;28;45761;-79
2023/07/30 01:06:07;;;;;;;;;2.75;2.00;;;;;;;;5011291;28;45743;-78
2023/07/30 01:08:33;;;;;;;;;0.75;0.75;;;;;;;;5011813;28;45929;-78
2023/07/30 01:10:59;;;;;;;;;0.50;0.00;;;;;;;;5013171;28;45490;-78
2023/07/30 01:13:26;;;;;;;;;1.00;1.00;;;;;;;;5004728;28;45785;-79
2023/07/30 01:15:51;;;;;;;;;0.00;0.00;;;;;;;;5011424;28;45740;-78
2023/07/30 01:18:17;;;;;;;;;2.00;1.00;;;;;;;;5012196;28;45666;-77
2023/07/30 01:20:43;;;;;;;;;1.50;1.00;;;;;;;;5012695;28;45757;-79
2023/07/30 01:23:11;;;;;;;;;3.00;2.00;;;;;;;;5010306;28;46580;-79
2023/07/30 01:25:43;;;;;;;;;1.25;1.00;;;;;;;;5010903;28;46154;-77
2023/07/30 01:28:12;;;;;;;;;1.67;1.33;;;;;;;;5013529;28;45645;-77
2023/07/30 01:30:40;;;;;;;;;4.25;1.25;;;;;;;;5012559;28;45403;-78
2023/07/30 01:33:06;;;;;;;;;1.00;1.00;;;;;;;;5011401;28;46377;-77
2023/07/30 01:35:35;;;;;;;;;1.00;0.00;;;;;;;;5012323;28;45359;-77
2023/07/30 01:38:03;;;;;;;;;3.00;2.00;;;;;;;;5016258;28;45715;-77
2023/07/30 01:40:32;;;;;;;;;8.33;4.00;;;;;;;;5017287;28;45448;-77
2023/07/30 01:43:00;;;;;;;;;0.67;0.00;;;;;;;;5016795;28;46107;-78
2023/07/30 01:45:27;;;;;;;;;3.50;1.25;;;;;;;;4999646;28;45800;-79
2023/07/30 01:47:53;;;;;;;;;1.00;1.00;;;;;;;;5012561;28;45964;-79
2023/07/30 01:50:22;;;;;;;;;0.25;0.25;;;;;;;;5011354;28;45800;-79
2023/07/30 01:52:48;;;;;;;;;1.00;1.00;;;;;;;;5009933;28;46449;-79
2023/07/30 01:55:13;;;;;;;;;1.00;0.00;;;;;;;;5005178;28;45879;-78
2023/07/30 01:57:39;;;;;;;;;2.00;1.00;;;;;;;;5011516;28;46211;-78
2023/07/30 02:00:06;;;;;;;;;1.00;1.00;;;;;;;;5010813;28;45864;-78
2023/07/30 02:02:32;;;;;;;;;1.50;0.25;;;;;;;;5012029;28;45826;-79
2023/07/30 02:04:58;;;;;;;;;2.67;2.67;;;;;;;;4999763;28;45663;-79
2023/07/30 02:07:24;;;;;;;;;1.00;0.25;;;;;;;;5010701;28;45938;-78
2023/07/30 02:09:52;;;;;;;;;1.50;1.50;;;;;;;;4997666;28;45823;-78
2023/07/30 02:12:20;;;;;;;;;2.00;0.00;;;;;;;;5002889;28;45845;-77
2023/07/30 02:14:45;;;;;;;;;1.33;1.33;;;;;;;;4995796;28;45968;-77
2023/07/30 02:17:11;;;;;;;;;2.25;1.00;;;;;;;;4975457;28;45777;-79
2023/07/30 02:19:36;;;;;;;;;1.33;1.33;;;;;;;;5009006;28;45778;-77
2023/07/30 02:22:03;;;;;;;;;4.00;1.33;;;;;;;;5009929;28;45825;-80
2023/07/30 02:24:29;;;;;;;;;2.00;2.00;;;;;;;;5009997;28;45561;-78
2023/07/30 02:26:54;;;;;;;;;4.25;1.00;;;;;;;;5010438;28;45936;-78
2023/07/30 02:29:22;;;;;;;;;6.00;4.00;;;;;;;;5000350;28;45797;-77
2023/07/30 02:31:48;;;;;;;;;4.00;4.00;;;;;;;;5011278;28;46616;-77
2023/07/30 02:34:14;;;;;;;;;1.00;1.00;;;;;;;;5010355;28;45462;-78
2023/07/30 02:36:44;;;;;;;;;2.00;1.00;;;;;;;;4992347;28;45392;-78
2023/07/30 02:39:09;;;;;;;;;1.67;1.00;;;;;;;;5010954;28;45709;-78
2023/07/30 02:41:41;;;;;;;;;0.50;0.25;;;;;;;;5009844;28;46287;-78
2023/07/30 02:44:08;;;;;;;;;1.50;0.75;;;;;;;;4992714;28;45716;-77
2023/07/30 02:46:34;;;;;;;;;5.00;2.00;;;;;;;;5009640;28;45642;-78
2023/07/30 02:48:59;;;;;;;;;1.25;1.00;;;;;;;;5010108;28;46135;-78
2023/07/30 02:51:25;;;;;;;;;1.50;0.25;;;;;;;;5011315;28;45833;-76
2023/07/30 02:53:53;;;;;;;;;1.00;1.00;;;;;;;;5009466;28;45563;-77
2023/07/30 02:56:18;;;;;;;;;1.00;1.00;;;;;;;;5010019;28;45490;-78
2023/07/30 02:58:43;;;;;;;;;1.00;1.00;;;;;;;;4991756;28;46244;-78
2023/07/30 03:01:09;;;;;;;;;1.00;1.00;;;;;;;;5009175;28;45427;-75
2023/07/30 03:03:34;;;;;;;;;2.67;1.67;;;;;;;;5009490;28;45968;-76
2023/07/30 03:06:00;;;;;;;;;2.00;1.00;;;;;;;;4992449;28;46357;-77
2023/07/30 03:08:25;;;;;;;;;2.33;1.00;;;;;;;;5009986;28;45654;-76
2023/07/30 03:10:50;;;;;;;;;2.75;1.00;;;;;;;;4994342;28;47110;-78
2023/07/30 03:13:15;;;;;;;;;3.33;1.00;;;;;;;;5016889;28;46123;-77
2023/07/30 03:15:41;;;;;;;;;1.00;1.00;;;;;;;;5008768;28;45290;-74
2023/07/30 03:18:06;;;;;;;;;2.67;1.00;;;;;;;;5010462;28;45503;-75
2023/07/30 03:20:31;;;;;;;;;2.00;2.00;;;;;;;;5010145;28;45764;-76
2023/07/30 03:22:56;;;;;;;;;4.75;1.75;;;;;;;;5009304;28;45462;-75
2023/07/30 03:25:22;;;;;;;;;2.67;2.00;;;;;;;;4991439;28;45926;-75
2023/07/30 03:27:47;;;;;;;;;2.67;2.67;;;;;;;;4978581;28;45581;-76
2023/07/30 03:30:12;;;;;;;;;2.67;2.00;;;;;;;;5006687;28;46032;-75
2023/07/30 03:32:38;;;;;;;;;3.33;1.00;;;;;;;;5009342;28;45820;-75
2023/07/30 03:35:03;;;;;;;;;0.67;0.67;;;;;;;;5008453;28;45849;-76
2023/07/30 03:37:28;;;;;;;;;5.67;1.00;;;;;;;;5007733;28;46020;-77
2023/07/30 03:39:54;;;;;;;;;3.00;1.00;;;;;;;;5008227;28;45766;-76
2023/07/30 03:42:20;;;;;;;;;2.00;2.00;;;;;;;;5008342;28;45502;-75
2023/07/30 03:44:45;;;;;;;;;2.00;1.00;;;;;;;;4990059;28;45815;-75
2023/07/30 03:47:10;;;;;;;;;1.00;0.00;;;;;;;;5009291;28;45998;-76
2023/07/30 03:49:37;;;;;;;;;2.33;1.00;;;;;;;;4989497;28;46969;-76
2023/07/30 03:52:02;;;;;;;;;1.67;1.67;;;;;;;;5008282;28;45501;-75
2023/07/30 03:54:28;;;;;;;;;2.00;1.00;;;;;;;;5008100;28;45468;-76
2023/07/30 03:56:53;;;;;;;;;2.33;1.00;;;;;;;;5008064;28;45753;-76
2023/07/30 03:59:18;;;;;;;;;2.25;0.50;;;;;;;;5009807;28;45874;-74
2023/07/30 04:01:43;;;;;;;;;2.33;2.33;;;;;;;;5008383;28;45732;-77
2023/07/30 04:04:08;;;;;;;;;1.00;1.00;;;;;;;;5008600;28;45365;-75
2023/07/30 04:06:34;;;;;;;;;2.00;1.00;;;;;;;;5009496;28;45715;-75
2023/07/30 04:08:59;;;;;;;;;1.00;1.00;;;;;;;;5011388;28;46612;-75
2023/07/30 04:11:24;;;;;;;;;3.00;1.75;;;;;;;;5010810;28;45804;-75
2023/07/30 04:13:49;;;;;;;;;2.00;2.00;;;;;;;;4984343;28;46077;-76
2023/07/30 04:16:14;;;;;;;;;3.00;2.00;;;;;;;;5000068;28;46152;-76
2023/07/30 04:18:40;;;;;;;;;2.67;2.00;;;;;;;;5006097;28;46434;-76
2023/07/30 04:21:05;;;;;;;;;1.00;1.00;;;;;;;;4993157;28;45518;-76
2023/07/30 04:23:31;;;;;;;;;3.00;2.33;;;;;;;;5011160;28;45701;-77
2023/07/30 04:25:56;;;;;;;;;4.00;2.67;;;;;;;;5011960;28;46421;-77
2023/07/30 04:28:21;;;;;;;;;3.00;2.00;;;;;;;;5012620;28;47506;-75
2023/07/30 04:30:47;;;;;;;;;4.00;3.00;;;;;;;;4994277;28;45757;-74
2023/07/30 04:33:13;;;;;;;;;1.50;1.00;;;;;;;;5011155;28;45806;-76
2023/07/30 04:35:39;;;;;;;;;1.25;1.00;;;;;;;;4993299;28;45541;-76
2023/07/30 04:38:04;;;;;;;;;1.75;1.75;;;;;;;;5010674;28;45605;-76
2023/07/30 04:40:29;;;;;;;;;2.33;2.00;;;;;;;;5012119;28;45731;-75
2023/07/30 04:42:55;;;;;;;;;2.00;2.00;;;;;;;;4993543;28;45488;-75
2023/07/30 04:45:20;;;;;;;;;1.67;1.00;;;;;;;;5011741;28;45389;-75
2023/07/30 04:47:45;;;;;;;;;3.33;2.00;;;;;;;;5014893;28;45453;-76
2023/07/30 04:50:10;;;;;;;;;3.67;1.00;;;;;;;;5023030;28;45857;-77
2023/07/30 04:52:36;;;;;;;;;1.00;1.00;;;;;;;;5015121;28;45960;-75
2023/07/30 04:55:01;;;;;;;;;2.67;1.33;;;;;;;;5001384;28;46292;-74
2023/07/30 04:57:26;;;;;;;;;4.00;2.00;;;;;;;;5013725;28;45643;-75
2023/07/30 04:59:52;;;;;;;;;3.67;2.67;;;;;;;;5013465;28;45486;-75
2023/07/30 05:02:17;;;;;;;;;1.33;0.00;;;;;;;;4992713;28;45462;-75
2023/07/30 05:04:42;;;;;;;;;2.00;1.00;;;;;;;;5001013;28;46040;-75
2023/07/30 05:07:07;;;;;;;;;2.00;1.00;;;;;;;;5010527;28;45813;-75
2023/07/30 05:09:33;;;;;;;;;1.67;1.33;;;;;;;;5012528;28;45704;-75
2023/07/30 05:11:58;;;;;;;;;3.00;1.67;;;;;;;;5010742;28;46108;-76
2023/07/30 05:14:23;;;;;;;;;2.50;1.25;;;;;;;;5010848;28;45456;-76
2023/07/30 05:16:49;;;;;;;;;3.00;1.75;;;;;;;;5010277;28;47205;-76
2023/07/30 05:19:15;;;;;;;;;4.00;1.00;;;;;;;;5010318;28;45436;-76
2023/07/30 05:21:40;;;;;;;;;4.25;1.50;;;;;;;;5010652;28;45642;-75
2023/07/30 05:24:07;;;;;;;;;4.00;1.00;;;;;;;;5009873;28;45684;-75
2023/07/30 05:26:32;;;;;;;;;3.00;3.00;;;;;;;;5011206;28;45767;-75
2023/07/30 05:28:58;;;;;;;;;2.25;2.00;;;;;;;;5010935;28;46169;-75
2023/07/30 05:31:23;;;;;;;;;1.00;1.00;;;;;;;;5011934;28;45615;-74
2023/07/30 05:33:48;;;;;;;;;4.00;2.00;;;;;;;;4993296;28;45586;-74
2023/07/30 05:36:13;;;;;;;;;1.00;1.00;;;;;;;;5009991;28;45734;-73
2023/07/30 05:38:38;;;;;;;;;1.25;1.00;;;;;;;;4993208;28;45779;-74
2023/07/30 05:41:04;;;;;;;;;3.50;1.00;;;;;;;;5008539;28;45802;-75
2023/07/30 05:43:29;;;;;;;;;3.25;1.00;;;;;;;;4991846;28;45889;-75
2023/07/30 05:45:54;;;;;;;;;1.00;1.00;;;;;;;;4991453;28;46158;-75
2023/07/30 05:48:19;;;;;;;;;4.00;1.00;;;;;;;;4991601;28;45916;-72
2023/07/30 05:50:45;;;;;;;;;2.75;1.50;;;;;;;;5008002;28;45793;-72
2023/07/30 05:53:10;;;;;;;;;1.00;0.75;;;;;;;;5008783;28;45957;-74
2023/07/30 05:55:35;;;;;;;;;1.00;1.00;;;;;;;;5010364;28;46923;-75
2023/07/30 05:58:00;;;;;;;;;2.75;2.75;;;;;;;;5010776;28;45486;-78
2023/07/30 06:00:26;;;;;;;;;0.00;0.00;;;;;;;;5008833;28;45786;-76
2023/07/30 06:02:51;;;;;;;;;3.50;3.00;;;;;;;;5010806;28;45676;-75
2023/07/30 06:05:16;;;;;;;;;12.25;10.75;;;;;;;;4991757;28;48259;-75
2023/07/30 06:07:42;;;;;;;;;7.50;4.25;;;;;;;;4992170;28;45488;-75
2023/07/30 06:10:07;;;;;;;;;12.50;6.75;;;;;;;;5025088;28;45370;-76
2023/07/30 06:12:32;;;;;;;;;43.67;37.67;;;;;;;;5009388;28;46631;-76
2023/07/30 06:14:58;;;;;;;;;18.25;14.25;;;;;;;;5009219;28;46262;-76
2023/07/30 06:17:23;;;;;;;;;16.00;14.00;;;;;;;;5009815;28;45950;-74
2023/07/30 06:19:48;;;;;;;;;6.50;5.00;;;;;;;;5010265;28;45616;-75
2023/07/30 06:22:14;;;;;;;;;4.50;2.50;;;;;;;;5010597;28;45402;-74
2023/07/30 06:24:39;;;;;;;;;3.25;3.00;;;;;;;;4993266;28;46231;-76
2023/07/30 06:27:05;;;;;;;;;1.25;1.25;;;;;;;;4994142;28;45496;-75
2023/07/30 06:29:30;;;;;;;;;1.00;1.00;;;;;;;;4991418;28;45565;-79
2023/07/30 06:31:55;;;;;;;;;0.00;0.00;;;;;;;;4993677;28;45959;-79
2023/07/30 06:34:20;;;;;;;;;1.50;1.00;;;;;;;;5011574;28;46335;-78
2023/07/30 06:36:49;;;;;;;;;2.00;1.00;;;;;;;;4993271;28;45908;-86
2023/07/30 06:39:14;;;;;;;;;1.00;1.00;;;;;;;;5018427;28;45936;-78
2023/07/30 06:41:40;;;;;;;;;0.00;0.00;;;;;;;;5019647;28;45401;-77
2023/07/30 06:44:05;;;;;;;;;2.75;1.00;;;;;;;;5006011;28;45141;-75
2023/07/30 06:46:36;;;;;;;;;2.50;1.50;;;;;;;;5010877;28;45433;-79
2023/07/30 06:49:04;;;;;;;;;1.00;1.00;;;;;;;;4998619;28;45479;-79
2023/07/30 06:51:30;;;;;;;;;2.00;2.00;;;;;;;;5008361;28;45650;-80
2023/07/30 06:53:56;;;;;;;;;2.75;1.25;;;;;;;;5001684;28;46083;-77
2023/07/30 06:56:26;;;;;;;;;0.75;0.25;;;;;;;;4988543;28;46114;-79
2023/07/30 06:58:52;;;;;;;;;1.00;1.00;;;;;;;;4969711;28;45761;-79
2023/07/30 07:01:17;;;;;;;;;2.00;1.00;;;;;;;;4988991;28;45397;-78
2023/07/30 07:03:42;;;;;;;;;1.75;1.00;;;;;;;;4992929;28;45590;-80
2023/07/30 07:06:08;;;;;;;;;2.25;1.00;;;;;;;;4996033;28;45865;-85
2023/07/30 07:08:34;;;;;;;;;1.50;0.75;;;;;;;;4974211;28;45523;-81
2023/07/30 07:11:02;;;;;;;;;3.50;2.00;;;;;;;;4990423;28;45915;-86
2023/07/30 07:13:28;;;;;;;;;1.25;1.00;;;;;;;;4984438;28;47044;-86
2023/07/30 07:15:53;;;;;;;;;1.00;1.00;;;;;;;;4994999;28;45281;-86
2023/07/30 07:18:18;;;;;;;;;1.00;1.00;;;;;;;;4964187;28;45476;-85
2023/07/30 07:20:44;;;;;;;;;2.00;2.00;;;;;;;;4976220;28;45774;-86
2023/07/30 07:23:09;;;;;;;;;2.25;0.75;;;;;;;;4995536;28;46282;-87
2023/07/30 07:25:35;;;;;;;;;2.50;1.25;;;;;;;;4993508;28;45690;-84
2023/07/30 07:28:00;;;;;;;;;2.25;2.25;;;;;;;;4979234;28;46060;-85
2023/07/30 07:30:25;;;;;;;;;2.50;1.25;;;;;;;;4974791;28;46730;-85
2023/07/30 07:32:52;;;;;;;;;1.75;0.75;;;;;;;;4977673;28;47002;-83
2023/07/30 07:35:20;;;;;;;;;0.40;0.00;;;;;;;;4995716;28;45732;-80
2023/07/30 07:37:46;;;;;;;;;0.25;0.25;;;;;;;;4974023;28;45682;-78
2023/07/30 07:40:11;;;;;;;;;1.00;1.00;;;;;;;;4989135;28;45521;-79
2023/07/30 07:42:38;;;;;;;;;2.00;2.00;;;;;;;;4983759;28;45526;-80
2023/07/30 07:45:03;;;;;;;;;0.50;0.50;;;;;;;;4974212;28;45675;-80
2023/07/30 07:47:29;;;;;;;;;1.75;1.25;;;;;;;;4993011;28;45736;-80
2023/07/30 07:49:54;;;;;;;;;2.00;1.00;;;;;;;;4975895;28;45970;-80
2023/07/30 07:52:20;;;;;;;;;1.75;0.25;;;;;;;;4976646;28;47182;-78
2023/07/30 07:54:45;;;;;;;;;2.50;1.00;;;;;;;;5010889;28;45464;-80
2023/07/30 07:57:11;;;;;;;;;1.00;1.00;;;;;;;;4995476;28;45495;-81
2023/07/30 07:59:36;;;;;;;;;4.75;0.25;;;;;;;;5015944;28;45396;-85
2023/07/30 08:02:02;;;;;;;;;3.75;1.50;;;;;;;;5015804;28;45884;-84
2023/07/30 08:04:27;;;;;;;;;0.00;0.00;;;;;;;;5002800;28;45553;-86
2023/07/30 08:06:52;;;;;;;;;2.25;1.25;;;;;;;;5001022;28;45889;-83
2023/07/30 08:09:18;;;;;;;;;2.00;2.00;;;;;;;;5020172;28;45328;-84
2023/07/30 08:11:43;;;;;;;;;1.50;1.00;;;;;;;;5007476;28;47022;-83
2023/07/30 08:14:09;;;;;;;;;1.50;1.50;;;;;;;;5013395;28;45788;-85
2023/07/30 08:16:34;;;;;;;;;0.50;0.50;;;;;;;;5016801;28;45535;-79
2023/07/30 08:19:00;;;;;;;;;0.00;0.00;;;;;;;;5013116;28;46404;-81
2023/07/30 08:21:25;;;;;;;;;0.50;0.50;;;;;;;;5011435;28;45870;-79
2023/07/30 08:23:53;;;;;;;;;1.00;1.00;;;;;;;;5019028;28;45823;-80
2023/07/30 08:26:21;;;;;;;;;2.00;1.50;;;;;;;;5014595;28;45625;-80
2023/07/30 08:28:46;;;;;;;;;3.00;1.25;;;;;;;;5013256;28;45384;-80
2023/07/30 08:31:19;;;;;;;;;1.00;1.00;;;;;;;;5002736;28;46277;-80
2023/07/30 08:36:30;;;;;;;;;2.75;1.25;;;;;;;;5002764;28;45692;-81
2023/07/30 08:38:55;;;;;;;;;1.00;1.00;;;;;;;;5001294;28;45816;-80
2023/07/30 08:41:24;;;;;;;;;2.75;2.75;;;;;;;;5012704;28;46197;-79
2023/07/30 08:43:49;;;;;;;;;12.50;10.25;;;;;;;;4999695;28;45983;-79
2023/07/30 08:46:16;;;;;;;;;5.25;4.25;;;;;;;;5012474;28;45885;-78
2023/07/30 08:48:43;;;;;;;;;5.75;5.25;;;;;;;;5012133;28;45697;-80
2023/07/30 08:51:31;;;;;;;;;4.75;4.00;;;;;;;;4993217;28;45849;-77
2023/07/30 08:54:44;;;;;;;;;5.50;3.25;;;;;;;;4993461;28;45763;-82
2023/07/30 08:57:13;;;;;;;;;3.25;2.00;;;;;;;;5007050;28;45588;-81
2023/07/30 08:59:45;;;;;;;;;1.00;1.00;;;;;;;;5008058;28;45779;-80
2023/07/30 09:02:18;;;;;;;;;2.00;2.00;;;;;;;;4999628;28;48112;-78
2023/07/30 09:04:49;;;;;;;;;1.00;1.00;;;;;;;;4994648;28;45945;-78
2023/07/30 09:07:26;;;;;;;;;1.25;1.25;;;;;;;;5000308;28;45615;-83
2023/07/30 09:09:51;;;;;;;;;2.00;2.00;;;;;;;;5009451;28;45881;-80
2023/07/30 09:12:19;;;;;;;;;3.25;2.00;;;;;;;;5012579;28;45754;-82
2023/07/30 09:14:50;;;;;;;;;1.00;1.00;;;;;;;;4997412;28;45415;-84
2023/07/30 09:17:16;;;;;;;;;6.00;3.75;;;;;;;;5011401;28;45382;-84
2023/07/30 09:19:42;;;;;;;;;3.00;1.50;;;;;;;;5001948;28;47007;-85
2023/07/30 09:22:10;;;;;;;;;1.25;1.25;;;;;;;;5019425;28;46557;-84
2023/07/30 09:24:49;;;;;;;;;2.00;2.00;;;;;;;;5023669;28;45766;-83
2023/07/30 09:27:14;;;;;;;;;1.75;1.75;;;;;;;;4993054;28;45360;-80
2023/07/30 09:29:49;;;;;;;;;4.50;1.50;;;;;;;;4990812;28;45455;-81
2023/07/30 09:32:15;;;;;;;;;1.75;1.75;;;;;;;;4994930;28;45912;-79
2023/07/30 09:34:44;;;;;;;;;4.25;4.00;;;;;;;;5012775;28;45980;-79
2023/07/30 09:37:13;;;;;;;;;2.75;2.00;;;;;;;;5016261;28;45391;-80
2023/07/30 09:39:47;;;;;;;;;3.00;2.00;;;;;;;;5017029;28;45954;-79
2023/07/30 09:42:17;;;;;;;;;6.75;4.75;;;;;;;;5024875;28;46101;-80
2023/07/30 09:44:46;;;;;;;;;4.75;3.75;;;;;;;;4987088;28;45499;-81
2023/07/30 09:47:12;;;;;;;;;5.00;1.75;;;;;;;;5016206;28;45725;-79
2023/07/30 09:49:39;;;;;;;;;1.50;1.25;;;;;;;;5003010;28;46877;-80
2023/07/30 09:52:05;;;;;;;;;13.50;10.25;;;;;;;;5017028;28;45533;-81
2023/07/30 09:54:32;;;;;;;;;6.25;4.75;;;;;;;;5000464;28;45555;-80
2023/07/30 09:56:58;;;;;;;;;5.50;2.75;;;;;;;;5023302;28;45353;-78
2023/07/30 09:59:27;;;;;;;;;5.00;3.25;;;;;;;;5027751;28;45436;-80
2023/07/30 10:01:55;;;;;;;;;8.00;6.50;;;;;;;;5016647;28;45587;-80
2023/07/30 10:04:25;;;;;;;;;6.50;3.75;;;;;;;;5000471;28;45519;-80
2023/07/30 10:10:00;;;;;;;;;4.75;3.00;;;;;;;;5003071;28;45547;-83
2023/07/30 10:12:31;;;;;;;;;8.25;8.25;;;;;;;;5004767;28;45744;-82
2023/07/30 10:14:57;;;;;;;;;3.50;3.25;;;;;;;;4995212;28;45717;-82
2023/07/30 10:17:22;;;;;;;;;2.00;1.25;;;;;;;;5022821;28;45397;-83
2023/07/30 10:19:51;;;;;;;;;4.00;3.00;;;;;;;;5022734;28;45723;-84
2023/07/30 10:22:26;;;;;;;;;3.00;2.00;;;;;;;;5007285;28;45952;-82
2023/07/30 10:25:25;;;;;;;;;1.40;1.40;;;;;;;;4992630;28;45942;-80
2023/07/30 10:27:53;;;;;;;;;3.75;3.50;;;;;;;;4956948;28;45857;-76
2023/07/30 10:30:20;;;;;;;;;3.25;3.00;;;;;;;;4976857;28;46573;-80
2023/07/30 10:33:00;;;;;;;;;4.00;2.00;;;;;;;;4973088;28;45383;-81
2023/07/30 10:35:55;;;;;;;;;3.00;2.00;;;;;;;;4983543;28;45906;-78
2023/07/30 10:38:57;;;;;;;;;;;;;;;;;;;;;
2023/07/30 10:41:31;;;;;;;;;15.00;12.50;;;;;;;;4940724;28;72756;-79
2023/07/30 10:47:26;;;;;;;;;6.75;5.00;;;;;;;;4953906;28;45832;-80
2023/07/30 10:50:21;;;;;;;;;3.75;2.75;;;;;;;;4949522;28;45767;-82
2023/07/30 10:52:57;;;;;;;;;5.75;5.75;;;;;;;;4948833;28;45449;-80
2023/07/30 10:58:42;;;;;;;;;8.00;6.50;;;;;;;;4947762;28;45758;-83
2023/07/30 11:01:41;;;;;;;;;1.75;1.75;;;;;;;;4938994;28;45882;-81
2023/07/30 11:04:07;;;;;;;;;76.25;66.00;;;;;;;;4960083;28;45678;-77
2023/07/30 11:06:36;;;;;;;;;14.25;12.50;;;;;;;;4995002;28;45717;-78
2023/07/30 11:09:02;;;;;;;;;16.00;15.25;;;;;;;;4989283;28;45468;-80
2023/07/30 11:11:29;;;;;;;;;3.00;1.75;;;;;;;;4999207;28;45901;-75
2023/07/30 11:13:54;;;;;;;;;17.00;12.75;;;;;;;;4994106;28;45399;-75
2023/07/30 11:16:22;;;;;;;;;4.00;4.00;;;;;;;;4991963;28;45812;-75
2023/07/30 11:18:48;;;;;;;;;3.00;3.00;;;;;;;;4989899;28;45803;-76
2023/07/30 11:21:14;;;;;;;;;11.25;9.75;;;;;;;;4991479;28;45868;-76
2023/07/30 11:23:44;;;;;;;;;4.00;2.00;;;;;;;;4996719;28;45902;-79
2023/07/30 11:26:17;;;;;;;;;9.00;7.25;;;;;;;;4996659;28;48134;-77
2023/07/30 11:28:43;;;;;;;;;3.50;3.50;;;;;;;;4998336;28;45581;-78
2023/07/30 11:31:15;;;;;;;;;9.75;7.75;;;;;;;;4997863;28;45297;-79
2023/07/30 11:33:53;;;;;;;;;4.00;4.00;;;;;;;;4979468;28;45800;-77
2023/07/30 11:36:42;;;;;;;;;21.00;16.33;;;;;;;;5000208;28;47491;-75
2023/07/30 11:39:08;;;;;;;;;3.00;3.00;;;;;;;;4996298;28;45357;-77
2023/07/30 11:41:33;;;;;;;;;1.00;1.00;;;;;;;;4990902;28;45950;-77
2023/07/30 11:44:02;;;;;;;;;2.25;1.00;;;;;;;;4989911;28;46030;-79
2023/07/30 11:46:29;;;;;;;;;2.00;2.00;;;;;;;;4991953;28;48336;-80
2023/07/30 11:49:14;;;;;;;;;2.50;2.00;;;;;;;;4990412;28;45423;-80
2023/07/30 11:51:41;;;;;;;;;3.00;2.00;;;;;;;;4990511;28;45640;-78
2023/07/30 11:54:08;;;;;;;;;2.00;1.00;;;;;;;;4986371;28;47025;-78
2023/07/30 11:56:36;;;;;;;;;3.00;3.00;;;;;;;;4991615;28;47466;-77
2023/07/30 11:59:04;;;;;;;;;4.25;4.25;;;;;;;;4996200;28;44893;-79
2023/07/30 12:01:37;;;;;;;;;3.75;2.00;;;;;;;;5008270;28;45396;-79
2023/07/30 12:04:06;;;;;;;;;4.25;4.00;;;;;;;;4992535;28;45387;-76
2023/07/30 12:06:41;;;;;;;;;2.25;2.25;;;;;;;;4993502;28;45827;-79
2023/07/30 12:09:15;;;;;;;;;3.00;3.00;;;;;;;;4993259;28;45909;-79
2023/07/30 12:12:07;;;;;;;;;3.25;3.25;;;;;;;;4993050;28;45419;-77
2023/07/30 12:14:48;;;;;;;;;5.00;3.00;;;;;;;;4981911;28;45603;-76
2023/07/30 12:17:21;;;;;;;;;53.67;44.33;;;;;;;;5008294;28;45724;-81
2023/07/30 12:20:19;;;;;;;;;29.67;25.67;;;;;;;;5001846;28;45345;-82
2023/07/30 12:23:20;;;;;;;;;10.67;7.67;;;;;;;;5009113;28;45490;-83
2023/07/30 12:25:53;;;;;;;;;48.67;39.33;;;;;;;;5005238;28;45730;-81
2023/07/30 12:28:28;;;;;;;;;40.67;30.33;;;;;;;;5006158;28;45828;-82
2023/07/30 12:31:39;;;;;;;;;7.75;6.00;;;;;;;;5009929;28;45315;-81
2023/07/30 12:34:10;;;;;;;;;5.50;2.00;;;;;;;;4955466;28;44946;-82
2023/07/30 12:40:01;;;;;;;;;3.00;2.00;;;;;;;;4971996;28;44941;-81
2023/07/30 12:43:13;;;;;;;;;5.00;4.00;;;;;;;;4953480;28;45538;-81
2023/07/30 12:45:59;;;;;;;;;3.00;3.00;;;;;;;;4943417;28;45510;-82
2023/07/30 12:48:56;;;;;;;;;7.75;7.00;;;;;;;;4968315;28;45420;-81
2023/07/30 12:51:44;;;;;;;;;4.25;3.50;;;;;;;;4995570;28;45107;-82
2023/07/30 12:54:10;;;;;;;;;7.00;6.75;;;;;;;;4992326;28;44805;-82
2023/07/30 12:56:37;;;;;;;;;8.25;6.00;;;;;;;;5007864;28;45470;-77
2023/07/30 12:59:02;;;;;;;;;1.25;1.25;;;;;;;;5003185;28;45462;-79
2023/07/30 13:01:28;;;;;;;;;2.50;2.00;;;;;;;;5006768;28;45513;-78
2023/07/30 13:03:58;;;;;;;;;3.25;3.00;;;;;;;;5006173;28;45445;-77
2023/07/30 13:06:32;;;;;;;;;2.00;2.00;;;;;;;;5008282;28;45538;-78
2023/07/30 13:08:59;;;;;;;;;4.75;3.50;;;;;;;;4994918;28;45277;-77
2023/07/30 13:11:27;;;;;;;;;6.25;2.75;;;;;;;;5006721;28;45729;-76
2023/07/30 13:13:53;;;;;;;;;1.75;1.75;;;;;;;;5010850;28;45550;-78
2023/07/30 13:16:18;;;;;;;;;4.25;3.00;;;;;;;;5009021;28;45761;-77
2023/07/30 13:18:43;;;;;;;;;3.75;3.75;;;;;;;;5005523;28;45299;-77
2023/07/30 13:21:08;;;;;;;;;3.50;2.00;;;;;;;;5005269;28;46400;-77
2023/07/30 13:23:34;;;;;;;;;5.75;4.50;;;;;;;;5005912;28;45300;-77
2023/07/30 13:26:00;;;;;;;;;4.25;3.00;;;;;;;;5005097;28;45344;-75
2023/07/30 13:28:25;;;;;;;;;2.50;2.50;;;;;;;;5006892;28;45048;-78
2023/07/30 13:30:51;;;;;;;;;3.50;2.50;;;;;;;;5005153;28;45443;-76
2023/07/30 13:33:16;;;;;;;;;8.75;5.75;;;;;;;;5006995;28;45641;-81
2023/07/30 13:35:42;;;;;;;;;3.00;3.00;;;;;;;;5010569;28;45898;-80
2023/07/30 13:38:07;;;;;;;;;5.50;4.25;;;;;;;;5008909;28;45871;-80
2023/07/30 13:40:32;;;;;;;;;4.00;3.00;;;;;;;;5008443;28;46537;-80
2023/07/30 13:42:58;;;;;;;;;5.00;4.75;;;;;;;;5007577;28;45415;-81
2023/07/30 13:45:23;;;;;;;;;2.00;2.00;;;;;;;;5008807;28;45994;-80
2023/07/30 13:47:49;;;;;;;;;3.00;3.00;;;;;;;;5008813;28;45347;-81
2023/07/30 13:50:14;;;;;;;;;2.50;2.25;;;;;;;;5009471;28;46294;-80
2023/07/30 13:52:39;;;;;;;;;6.25;5.00;;;;;;;;5007614;28;45196;-76
2023/07/30 13:55:05;;;;;;;;;3.50;2.50;;;;;;;;5007313;28;45726;-76
2023/07/30 13:57:30;;;;;;;;;3.50;2.50;;;;;;;;5029277;28;45411;-80
2023/07/30 13:59:56;;;;;;;;;7.25;3.75;;;;;;;;5034143;28;46428;-82
2023/07/30 14:02:35;;;;;;;;;3.00;3.00;;;;;;;;5032406;28;45529;-79
2023/07/30 14:05:00;;;;;;;;;5.00;2.00;;;;;;;;5004765;28;44795;-81
2023/07/30 14:07:26;;;;;;;;;2.00;2.00;;;;;;;;5035580;28;45343;-82
2023/07/30 14:09:51;;;;;;;;;2.75;2.75;;;;;;;;5019266;28;46750;-83
2023/07/30 14:12:16;;;;;;;;;3.00;2.50;;;;;;;;5018972;28;45918;-81
2023/07/30 14:14:42;;;;;;;;;0.00;0.00;;;;;;;;5036925;28;45476;-81
2023/07/30 14:17:07;;;;;;;;;4.00;3.00;;;;;;;;5017640;28;46975;-83
2023/07/30 14:19:33;;;;;;;;;2.75;2.00;;;;;;;;5033105;28;45079;-81
2023/07/30 14:21:58;;;;;;;;;3.75;3.00;;;;;;;;5035090;28;45220;-84
2023/07/30 14:24:24;;;;;;;;;2.75;2.75;;;;;;;;5037435;28;45660;-87
2023/07/30 14:26:50;;;;;;;;;4.75;4.75;;;;;;;;5038388;28;44773;-85
2023/07/30 14:29:15;;;;;;;;;5.25;4.25;;;;;;;;5025274;28;45486;-86
2023/07/30 14:31:41;;;;;;;;;3.50;3.25;;;;;;;;5021459;28;45400;-86
2023/07/30 14:34:06;;;;;;;;;2.25;2.25;;;;;;;;5038583;28;44916;-87
2023/07/30 14:36:44;;;;;;;;;3.25;3.25;;;;;;;;5033285;28;45380;-81
2023/07/30 14:39:28;;;;;;;;;1.00;1.00;;;;;;;;5017787;28;45369;-79
2023/07/30 14:42:05;;;;;;;;;2.00;2.00;;;;;;;;5018452;28;45406;-81
2023/07/30 14:44:38;;;;;;;;;14.50;14.25;;;;;;;;5030814;28;45218;-82
2023/07/30 14:47:39;;;;;;;;;15.50;11.75;;;;;;;;5012016;28;45306;-79
2023/07/30 14:50:08;;;;;;;;;12.75;10.25;;;;;;;;5031145;28;45920;-80
2023/07/30 14:52:55;;;;;;;;;43.67;34.67;;;;;;;;5000514;28;45480;-80
2023/07/30 14:58:36;;;;;;;;;14.67;14.33;;;;;;;;4928031;28;45639;-79
2023/07/30 15:01:04;;;;;;;;;20.67;17.67;;;;;;;;4942583;28;45264;-79
2023/07/30 15:03:29;;;;;;;;;5.00;3.75;;;;;;;;4947245;28;45596;-81
2023/07/30 15:05:58;;;;;;;;;53.33;41.67;;;;;;;;4946262;28;45491;-79
2023/07/30 15:08:29;;;;;;;;;8.75;6.75;;;;;;;;4918368;28;45642;-78